sensor_id;sensor_type;location;lat;lon;timestamp;P1;durP1;ratioP1;P2;durP2;ratioP2
83125;SDS011;73016;47.234;-1.540;2023-09-30T00:02:21;16.55;;;5.70;;
83125;SDS011;73016;47.234;-1.540;2023-09-30T00:04:47;12.35;;;5.75;;
83125;SDS011;73016;47.234;-1.540;2023-09-30T00:07:12;16.38;;;5.20;;
83125;SDS011;73016;47.234;-1.540;2023-09-30T00:09:38;10.85;;;4.60;;
83125;SDS011;73016;47.234;-1.540;2023-09-30T00:12:03;15.38;;;4.80;;
83125;SDS011;73016;47.234;-1.540;2023-09-30T00:14:29;14.73;;;4.93;;
83125;SDS011;73016;47.234;-1.540;2023-09-30T00:16:54;15.48;;;5.75;;
83125;SDS011;73016;47.234;-1.540;2023-09-30T00:19:20;13.40;;;4.47;;
83125;SDS011;73016;47.234;-1.540;2023-09-30T00:21:47;12.60;;;5.05;;
83125;SDS011;73016;47.234;-1.540;2023-09-30T00:24:13;10.88;;;4.38;;
83125;SDS011;73016;47.234;-1.540;2023-09-30T00:26:38;16.10;;;5.38;;
83125;SDS011;73016;47.234;-1.540;2023-09-30T00:29:04;14.55;;;5.53;;
83125;SDS011;73016;47.234;-1.540;2023-09-30T00:31:30;15.20;;;5.13;;
83125;SDS011;73016;47.234;-1.540;2023-09-30T00:33:55;12.32;;;4.15;;
83125;SDS011;73016;47.234;-1.540;2023-09-30T00:36:21;12.90;;;4.78;;
83125;SDS011;73016;47.234;-1.540;2023-09-30T00:38:46;13.05;;;5.25;;
83125;SDS011;73016;47.234;-1.540;2023-09-30T00:41:12;11.80;;;4.80;;
83125;SDS011;73016;47.234;-1.540;2023-09-30T00:43:37;17.13;;;4.78;;
83125;SDS011;73016;47.234;-1.540;2023-09-30T00:48:41;14.60;;;6.07;;
83125;SDS011;73016;47.234;-1.540;2023-09-30T00:51:07;12.60;;;4.80;;
83125;SDS011;73016;47.234;-1.540;2023-09-30T00:53:32;13.88;;;4.97;;
83125;SDS011;73016;47.234;-1.540;2023-09-30T00:55:58;14.85;;;6.13;;
83125;SDS011;73016;47.234;-1.540;2023-09-30T00:58:25;14.43;;;5.63;;
83125;SDS011;73016;47.234;-1.540;2023-09-30T01:00:53;15.25;;;5.50;;
83125;SDS011;73016;47.234;-1.540;2023-09-30T01:03:19;16.27;;;5.47;;
83125;SDS011;73016;47.234;-1.540;2023-09-30T01:05:45;10.80;;;5.28;;
83125;SDS011;73016;47.234;-1.540;2023-09-30T01:08:10;14.52;;;5.45;;
83125;SDS011;73016;47.234;-1.540;2023-09-30T01:10:36;12.10;;;5.53;;
83125;SDS011;73016;47.234;-1.540;2023-09-30T01:13:01;16.27;;;5.00;;
83125;SDS011;73016;47.234;-1.540;2023-09-30T01:15:28;17.70;;;6.18;;
83125;SDS011;73016;47.234;-1.540;2023-09-30T01:17:54;14.35;;;5.32;;
83125;SDS011;73016;47.234;-1.540;2023-09-30T01:20:19;12.90;;;4.65;;
83125;SDS011;73016;47.234;-1.540;2023-09-30T01:22:48;11.35;;;4.78;;
83125;SDS011;73016;47.234;-1.540;2023-09-30T01:25:13;12.07;;;5.18;;
83125;SDS011;73016;47.234;-1.540;2023-09-30T01:27:39;14.32;;;5.20;;
83125;SDS011;73016;47.234;-1.540;2023-09-30T01:30:04;14.57;;;4.70;;
83125;SDS011;73016;47.234;-1.540;2023-09-30T01:32:30;10.70;;;4.57;;
83125;SDS011;73016;47.234;-1.540;2023-09-30T01:34:56;15.55;;;5.55;;
83125;SDS011;73016;47.234;-1.540;2023-09-30T01:37:21;13.00;;;4.63;;
83125;SDS011;73016;47.234;-1.540;2023-09-30T01:39:46;11.68;;;4.63;;
83125;SDS011;73016;47.234;-1.540;2023-09-30T01:42:13;12.50;;;5.03;;
83125;SDS011;73016;47.234;-1.540;2023-09-30T01:44:39;13.35;;;5.53;;
83125;SDS011;73016;47.234;-1.540;2023-09-30T01:47:04;14.05;;;5.00;;
83125;SDS011;73016;47.234;-1.540;2023-09-30T01:49:30;9.25;;;3.72;;
83125;SDS011;73016;47.234;-1.540;2023-09-30T01:51:55;12.35;;;4.97;;
83125;SDS011;73016;47.234;-1.540;2023-09-30T01:54:21;12.45;;;4.53;;
83125;SDS011;73016;47.234;-1.540;2023-09-30T01:56:46;12.98;;;4.97;;
83125;SDS011;73016;47.234;-1.540;2023-09-30T01:59:11;12.82;;;4.18;;
83125;SDS011;73016;47.234;-1.540;2023-09-30T02:01:37;14.35;;;4.93;;
83125;SDS011;73016;47.234;-1.540;2023-09-30T02:04:02;14.73;;;5.32;;
83125;SDS011;73016;47.234;-1.540;2023-09-30T02:06:28;10.38;;;4.10;;
83125;SDS011;73016;47.234;-1.540;2023-09-30T02:08:53;9.68;;;4.72;;
83125;SDS011;73016;47.234;-1.540;2023-09-30T02:11:18;12.23;;;4.65;;
83125;SDS011;73016;47.234;-1.540;2023-09-30T02:13:44;12.88;;;4.75;;
83125;SDS011;73016;47.234;-1.540;2023-09-30T02:16:13;10.02;;;4.82;;
83125;SDS011;73016;47.234;-1.540;2023-09-30T02:21:05;10.25;;;4.38;;
83125;SDS011;73016;47.234;-1.540;2023-09-30T02:23:32;10.70;;;4.35;;
83125;SDS011;73016;47.234;-1.540;2023-09-30T02:25:58;11.43;;;5.07;;
83125;SDS011;73016;47.234;-1.540;2023-09-30T02:28:23;12.05;;;4.55;;
83125;SDS011;73016;47.234;-1.540;2023-09-30T02:30:49;9.05;;;3.38;;
83125;SDS011;73016;47.234;-1.540;2023-09-30T02:33:14;12.55;;;4.97;;
83125;SDS011;73016;47.234;-1.540;2023-09-30T02:35:43;11.60;;;5.03;;
83125;SDS011;73016;47.234;-1.540;2023-09-30T02:38:10;14.15;;;4.05;;
83125;SDS011;73016;47.234;-1.540;2023-09-30T02:40:36;11.95;;;3.80;;
83125;SDS011;73016;47.234;-1.540;2023-09-30T02:43:01;12.40;;;4.75;;
83125;SDS011;73016;47.234;-1.540;2023-09-30T02:45:27;11.18;;;4.78;;
83125;SDS011;73016;47.234;-1.540;2023-09-30T02:47:52;13.38;;;4.00;;
83125;SDS011;73016;47.234;-1.540;2023-09-30T02:50:17;11.32;;;5.05;;
83125;SDS011;73016;47.234;-1.540;2023-09-30T02:52:43;10.10;;;4.95;;
83125;SDS011;73016;47.234;-1.540;2023-09-30T02:55:09;9.15;;;3.95;;
83125;SDS011;73016;47.234;-1.540;2023-09-30T02:57:35;13.73;;;4.05;;
83125;SDS011;73016;47.234;-1.540;2023-09-30T03:00:03;12.50;;;4.05;;
83125;SDS011;73016;47.234;-1.540;2023-09-30T03:02:51;11.57;;;4.47;;
83125;SDS011;73016;47.234;-1.540;2023-09-30T03:05:18;10.88;;;4.90;;
83125;SDS011;73016;47.234;-1.540;2023-09-30T03:07:44;11.80;;;3.97;;
83125;SDS011;73016;47.234;-1.540;2023-09-30T03:10:10;8.38;;;3.92;;
83125;SDS011;73016;47.234;-1.540;2023-09-30T03:12:37;9.50;;;4.38;;
83125;SDS011;73016;47.234;-1.540;2023-09-30T03:15:03;11.00;;;4.32;;
83125;SDS011;73016;47.234;-1.540;2023-09-30T03:17:30;11.32;;;4.10;;
83125;SDS011;73016;47.234;-1.540;2023-09-30T03:19:55;8.73;;;4.20;;
83125;SDS011;73016;47.234;-1.540;2023-09-30T03:22:22;12.85;;;4.57;;
83125;SDS011;73016;47.234;-1.540;2023-09-30T03:24:48;11.32;;;4.35;;
83125;SDS011;73016;47.234;-1.540;2023-09-30T03:27:13;11.88;;;4.70;;
83125;SDS011;73016;47.234;-1.540;2023-09-30T03:29:40;11.48;;;4.63;;
83125;SDS011;73016;47.234;-1.540;2023-09-30T03:32:06;15.90;;;4.30;;
83125;SDS011;73016;47.234;-1.540;2023-09-30T03:34:31;11.57;;;4.63;;
83125;SDS011;73016;47.234;-1.540;2023-09-30T03:37:01;11.05;;;4.72;;
83125;SDS011;73016;47.234;-1.540;2023-09-30T03:39:27;10.13;;;4.20;;
83125;SDS011;73016;47.234;-1.540;2023-09-30T03:41:55;10.38;;;4.50;;
83125;SDS011;73016;47.234;-1.540;2023-09-30T03:44:22;9.38;;;4.00;;
83125;SDS011;73016;47.234;-1.540;2023-09-30T03:46:48;11.57;;;4.03;;
83125;SDS011;73016;47.234;-1.540;2023-09-30T03:49:15;10.35;;;3.95;;
83125;SDS011;73016;47.234;-1.540;2023-09-30T03:51:41;10.48;;;3.90;;
83125;SDS011;73016;47.234;-1.540;2023-09-30T03:54:06;14.90;;;5.20;;
83125;SDS011;73016;47.234;-1.540;2023-09-30T03:56:31;12.65;;;4.35;;
83125;SDS011;73016;47.234;-1.540;2023-09-30T03:58:57;10.25;;;4.30;;
83125;SDS011;73016;47.234;-1.540;2023-09-30T04:01:23;10.57;;;4.80;;
83125;SDS011;73016;47.234;-1.540;2023-09-30T04:03:50;12.02;;;4.20;;
83125;SDS011;73016;47.234;-1.540;2023-09-30T04:06:19;11.82;;;4.15;;
83125;SDS011;73016;47.234;-1.540;2023-09-30T04:08:45;10.73;;;3.75;;
83125;SDS011;73016;47.234;-1.540;2023-09-30T04:11:10;9.70;;;4.00;;
83125;SDS011;73016;47.234;-1.540;2023-09-30T04:13:41;10.38;;;4.65;;
83125;SDS011;73016;47.234;-1.540;2023-09-30T04:16:07;15.05;;;4.97;;
83125;SDS011;73016;47.234;-1.540;2023-09-30T04:18:32;12.18;;;3.53;;
83125;SDS011;73016;47.234;-1.540;2023-09-30T04:20:58;9.07;;;3.67;;
83125;SDS011;73016;47.234;-1.540;2023-09-30T04:23:25;9.52;;;3.95;;
83125;SDS011;73016;47.234;-1.540;2023-09-30T04:25:50;11.48;;;3.83;;
83125;SDS011;73016;47.234;-1.540;2023-09-30T04:28:16;10.77;;;4.22;;
83125;SDS011;73016;47.234;-1.540;2023-09-30T04:30:46;12.38;;;4.35;;
83125;SDS011;73016;47.234;-1.540;2023-09-30T04:33:12;11.07;;;4.32;;
83125;SDS011;73016;47.234;-1.540;2023-09-30T04:35:38;11.70;;;4.93;;
83125;SDS011;73016;47.234;-1.540;2023-09-30T04:38:03;12.10;;;4.45;;
83125;SDS011;73016;47.234;-1.540;2023-09-30T04:40:29;9.18;;;3.92;;
83125;SDS011;73016;47.234;-1.540;2023-09-30T04:42:55;10.93;;;4.20;;
83125;SDS011;73016;47.234;-1.540;2023-09-30T04:45:23;10.60;;;4.00;;
83125;SDS011;73016;47.234;-1.540;2023-09-30T04:47:52;10.82;;;4.13;;
83125;SDS011;73016;47.234;-1.540;2023-09-30T04:50:18;11.57;;;4.75;;
83125;SDS011;73016;47.234;-1.540;2023-09-30T04:52:46;8.68;;;3.58;;
83125;SDS011;73016;47.234;-1.540;2023-09-30T04:55:13;12.77;;;4.70;;
83125;SDS011;73016;47.234;-1.540;2023-09-30T04:57:41;13.98;;;4.32;;
83125;SDS011;73016;47.234;-1.540;2023-09-30T05:00:09;10.82;;;4.47;;
83125;SDS011;73016;47.234;-1.540;2023-09-30T05:02:37;13.05;;;4.03;;
83125;SDS011;73016;47.234;-1.540;2023-09-30T05:05:02;11.52;;;4.45;;
83125;SDS011;73016;47.234;-1.540;2023-09-30T05:07:31;10.45;;;3.70;;
83125;SDS011;73016;47.234;-1.540;2023-09-30T05:09:56;10.63;;;4.10;;
83125;SDS011;73016;47.234;-1.540;2023-09-30T05:12:22;8.40;;;3.85;;
83125;SDS011;73016;47.234;-1.540;2023-09-30T05:14:48;11.18;;;3.95;;
83125;SDS011;73016;47.234;-1.540;2023-09-30T05:17:13;10.95;;;5.15;;
83125;SDS011;73016;47.234;-1.540;2023-09-30T05:19:39;11.73;;;4.07;;
83125;SDS011;73016;47.234;-1.540;2023-09-30T05:22:04;10.35;;;4.65;;
83125;SDS011;73016;47.234;-1.540;2023-09-30T05:24:30;12.60;;;4.78;;
83125;SDS011;73016;47.234;-1.540;2023-09-30T05:26:55;10.77;;;4.45;;
83125;SDS011;73016;47.234;-1.540;2023-09-30T05:29:21;12.85;;;5.38;;
83125;SDS011;73016;47.234;-1.540;2023-09-30T05:31:47;13.05;;;4.50;;
83125;SDS011;73016;47.234;-1.540;2023-09-30T05:34:13;12.75;;;4.68;;
83125;SDS011;73016;47.234;-1.540;2023-09-30T05:36:38;11.85;;;4.28;;
83125;SDS011;73016;47.234;-1.540;2023-09-30T05:39:03;14.90;;;5.75;;
83125;SDS011;73016;47.234;-1.540;2023-09-30T05:41:30;12.68;;;4.53;;
83125;SDS011;73016;47.234;-1.540;2023-09-30T05:43:56;13.80;;;4.15;;
83125;SDS011;73016;47.234;-1.540;2023-09-30T05:46:21;13.23;;;5.15;;
83125;SDS011;73016;47.234;-1.540;2023-09-30T05:48:46;9.35;;;4.47;;
83125;SDS011;73016;47.234;-1.540;2023-09-30T05:51:12;13.05;;;3.45;;
83125;SDS011;73016;47.234;-1.540;2023-09-30T05:53:40;14.43;;;4.80;;
83125;SDS011;73016;47.234;-1.540;2023-09-30T05:56:06;15.10;;;5.60;;
83125;SDS011;73016;47.234;-1.540;2023-09-30T05:58:32;13.85;;;4.70;;
83125;SDS011;73016;47.234;-1.540;2023-09-30T06:00:57;8.82;;;4.28;;
83125;SDS011;73016;47.234;-1.540;2023-09-30T06:03:23;9.93;;;4.70;;
83125;SDS011;73016;47.234;-1.540;2023-09-30T06:05:49;10.05;;;4.60;;
83125;SDS011;73016;47.234;-1.540;2023-09-30T06:08:14;12.60;;;4.43;;
83125;SDS011;73016;47.234;-1.540;2023-09-30T06:10:43;12.65;;;4.95;;
83125;SDS011;73016;47.234;-1.540;2023-09-30T06:13:09;10.07;;;4.53;;
83125;SDS011;73016;47.234;-1.540;2023-09-30T06:15:38;11.02;;;4.45;;
83125;SDS011;73016;47.234;-1.540;2023-09-30T06:18:07;12.00;;;4.45;;
83125;SDS011;73016;47.234;-1.540;2023-09-30T06:20:34;8.15;;;4.03;;
83125;SDS011;73016;47.234;-1.540;2023-09-30T06:23:00;11.68;;;3.97;;
83125;SDS011;73016;47.234;-1.540;2023-09-30T06:25:26;13.95;;;4.30;;
83125;SDS011;73016;47.234;-1.540;2023-09-30T06:27:53;13.73;;;4.78;;
83125;SDS011;73016;47.234;-1.540;2023-09-30T06:30:20;7.70;;;3.97;;
83125;SDS011;73016;47.234;-1.540;2023-09-30T06:32:46;9.88;;;3.95;;
83125;SDS011;73016;47.234;-1.540;2023-09-30T06:35:11;14.45;;;4.97;;
83125;SDS011;73016;47.234;-1.540;2023-09-30T06:37:38;9.75;;;4.40;;
83125;SDS011;73016;47.234;-1.540;2023-09-30T06:40:07;13.27;;;6.38;;
83125;SDS011;73016;47.234;-1.540;2023-09-30T06:42:34;11.40;;;5.35;;
83125;SDS011;73016;47.234;-1.540;2023-09-30T06:45:01;13.02;;;6.32;;
83125;SDS011;73016;47.234;-1.540;2023-09-30T06:47:26;13.27;;;5.75;;
83125;SDS011;73016;47.234;-1.540;2023-09-30T06:49:52;15.15;;;6.60;;
83125;SDS011;73016;47.234;-1.540;2023-09-30T06:52:18;14.93;;;6.45;;
83125;SDS011;73016;47.234;-1.540;2023-09-30T06:54:44;17.25;;;7.25;;
83125;SDS011;73016;47.234;-1.540;2023-09-30T06:57:10;13.38;;;6.05;;
83125;SDS011;73016;47.234;-1.540;2023-09-30T06:59:35;17.40;;;6.95;;
83125;SDS011;73016;47.234;-1.540;2023-09-30T07:02:01;14.52;;;7.03;;
83125;SDS011;73016;47.234;-1.540;2023-09-30T07:04:26;11.50;;;6.50;;
83125;SDS011;73016;47.234;-1.540;2023-09-30T07:06:55;15.25;;;6.53;;
83125;SDS011;73016;47.234;-1.540;2023-09-30T07:09:20;15.77;;;7.03;;
83125;SDS011;73016;47.234;-1.540;2023-09-30T07:11:45;18.67;;;7.07;;
83125;SDS011;73016;47.234;-1.540;2023-09-30T07:14:11;17.42;;;6.93;;
83125;SDS011;73016;47.234;-1.540;2023-09-30T07:16:36;14.98;;;6.65;;
83125;SDS011;73016;47.234;-1.540;2023-09-30T07:19:02;15.50;;;6.53;;
83125;SDS011;73016;47.234;-1.540;2023-09-30T07:21:28;16.45;;;6.93;;
83125;SDS011;73016;47.234;-1.540;2023-09-30T07:23:53;16.08;;;7.53;;
83125;SDS011;73016;47.234;-1.540;2023-09-30T07:26:23;15.60;;;6.53;;
83125;SDS011;73016;47.234;-1.540;2023-09-30T07:28:49;15.30;;;6.78;;
83125;SDS011;73016;47.234;-1.540;2023-09-30T07:31:14;14.20;;;6.95;;
83125;SDS011;73016;47.234;-1.540;2023-09-30T07:33:40;13.65;;;6.63;;
83125;SDS011;73016;47.234;-1.540;2023-09-30T07:36:05;18.23;;;6.70;;
83125;SDS011;73016;47.234;-1.540;2023-09-30T07:38:31;14.15;;;7.35;;
83125;SDS011;73016;47.234;-1.540;2023-09-30T07:40:56;22.33;;;8.35;;
83125;SDS011;73016;47.234;-1.540;2023-09-30T07:43:21;19.50;;;8.02;;
83125;SDS011;73016;47.234;-1.540;2023-09-30T07:45:47;15.32;;;7.25;;
83125;SDS011;73016;47.234;-1.540;2023-09-30T07:48:13;18.08;;;8.02;;
83125;SDS011;73016;47.234;-1.540;2023-09-30T07:50:39;17.65;;;7.70;;
83125;SDS011;73016;47.234;-1.540;2023-09-30T07:53:04;17.83;;;7.45;;
83125;SDS011;73016;47.234;-1.540;2023-09-30T07:55:30;18.30;;;8.48;;
83125;SDS011;73016;47.234;-1.540;2023-09-30T07:57:56;17.75;;;8.75;;
83125;SDS011;73016;47.234;-1.540;2023-09-30T08:00:22;16.25;;;8.00;;
83125;SDS011;73016;47.234;-1.540;2023-09-30T08:02:48;19.17;;;8.68;;
83125;SDS011;73016;47.234;-1.540;2023-09-30T08:05:15;16.40;;;8.73;;
83125;SDS011;73016;47.234;-1.540;2023-09-30T08:07:40;17.55;;;8.18;;
83125;SDS011;73016;47.234;-1.540;2023-09-30T08:10:06;18.50;;;8.40;;
83125;SDS011;73016;47.234;-1.540;2023-09-30T08:12:37;17.75;;;9.00;;
83125;SDS011;73016;47.234;-1.540;2023-09-30T08:15:02;20.63;;;8.70;;
83125;SDS011;73016;47.234;-1.540;2023-09-30T08:17:28;18.38;;;8.10;;
83125;SDS011;73016;47.234;-1.540;2023-09-30T08:19:53;16.30;;;8.90;;
83125;SDS011;73016;47.234;-1.540;2023-09-30T08:22:19;18.38;;;9.32;;
83125;SDS011;73016;47.234;-1.540;2023-09-30T08:24:44;16.52;;;7.80;;
83125;SDS011;73016;47.234;-1.540;2023-09-30T08:27:10;16.02;;;8.25;;
83125;SDS011;73016;47.234;-1.540;2023-09-30T08:29:35;22.85;;;9.43;;
83125;SDS011;73016;47.234;-1.540;2023-09-30T08:32:04;17.67;;;8.13;;
83125;SDS011;73016;47.234;-1.540;2023-09-30T08:34:29;20.15;;;9.15;;
83125;SDS011;73016;47.234;-1.540;2023-09-30T08:36:55;21.42;;;8.68;;
83125;SDS011;73016;47.234;-1.540;2023-09-30T08:39:22;19.00;;;7.97;;
83125;SDS011;73016;47.234;-1.540;2023-09-30T08:41:48;16.70;;;8.20;;
83125;SDS011;73016;47.234;-1.540;2023-09-30T08:44:15;18.13;;;8.18;;
83125;SDS011;73016;47.234;-1.540;2023-09-30T08:46:40;18.13;;;8.38;;
83125;SDS011;73016;47.234;-1.540;2023-09-30T08:49:06;21.33;;;10.32;;
83125;SDS011;73016;47.234;-1.540;2023-09-30T08:51:32;18.45;;;8.30;;
83125;SDS011;73016;47.234;-1.540;2023-09-30T08:53:58;16.63;;;7.97;;
83125;SDS011;73016;47.234;-1.540;2023-09-30T08:56:25;17.90;;;8.48;;
83125;SDS011;73016;47.234;-1.540;2023-09-30T08:58:54;19.08;;;8.35;;
83125;SDS011;73016;47.234;-1.540;2023-09-30T09:01:22;17.65;;;8.50;;
83125;SDS011;73016;47.234;-1.540;2023-09-30T09:03:48;18.98;;;8.27;;
83125;SDS011;73016;47.234;-1.540;2023-09-30T09:06:17;15.48;;;7.60;;
83125;SDS011;73016;47.234;-1.540;2023-09-30T09:08:49;15.32;;;7.93;;
83125;SDS011;73016;47.234;-1.540;2023-09-30T09:11:15;16.98;;;7.82;;
83125;SDS011;73016;47.234;-1.540;2023-09-30T09:16:14;13.90;;;7.07;;
83125;SDS011;73016;47.234;-1.540;2023-09-30T09:18:40;20.67;;;8.02;;
83125;SDS011;73016;47.234;-1.540;2023-09-30T09:21:10;17.88;;;7.30;;
83125;SDS011;73016;47.234;-1.540;2023-09-30T09:26:07;18.38;;;8.38;;
83125;SDS011;73016;47.234;-1.540;2023-09-30T09:28:34;17.63;;;7.75;;
83125;SDS011;73016;47.234;-1.540;2023-09-30T09:31:23;16.48;;;7.43;;
83125;SDS011;73016;47.234;-1.540;2023-09-30T09:34:02;17.65;;;7.03;;
83125;SDS011;73016;47.234;-1.540;2023-09-30T09:36:41;16.00;;;7.07;;
83125;SDS011;73016;47.234;-1.540;2023-09-30T09:39:08;13.85;;;6.88;;
83125;SDS011;73016;47.234;-1.540;2023-09-30T09:41:48;17.20;;;6.90;;
83125;SDS011;73016;47.234;-1.540;2023-09-30T09:44:18;15.65;;;7.15;;
83125;SDS011;73016;47.234;-1.540;2023-09-30T09:46:45;16.13;;;6.82;;
83125;SDS011;73016;47.234;-1.540;2023-09-30T09:49:12;15.02;;;7.10;;
83125;SDS011;73016;47.234;-1.540;2023-09-30T09:51:38;17.45;;;7.07;;
83125;SDS011;73016;47.234;-1.540;2023-09-30T09:54:04;13.63;;;6.65;;
83125;SDS011;73016;47.234;-1.540;2023-09-30T09:56:32;15.10;;;6.75;;
83125;SDS011;73016;47.234;-1.540;2023-09-30T09:58:59;16.15;;;6.82;;
83125;SDS011;73016;47.234;-1.540;2023-09-30T10:01:26;13.45;;;6.78;;
83125;SDS011;73016;47.234;-1.540;2023-09-30T10:03:52;11.80;;;6.10;;
83125;SDS011;73016;47.234;-1.540;2023-09-30T10:06:18;15.73;;;6.40;;
83125;SDS011;73016;47.234;-1.540;2023-09-30T10:08:45;12.75;;;6.03;;
83125;SDS011;73016;47.234;-1.540;2023-09-30T10:11:18;17.27;;;6.60;;
83125;SDS011;73016;47.234;-1.540;2023-09-30T10:19:10;15.27;;;7.65;;
83125;SDS011;73016;47.234;-1.540;2023-09-30T10:24:57;12.65;;;6.40;;
83125;SDS011;73016;47.234;-1.540;2023-09-30T10:38:36;14.23;;;6.70;;
83125;SDS011;73016;47.234;-1.540;2023-09-30T10:40:47;16.90;;;7.57;;
83125;SDS011;73016;47.234;-1.540;2023-09-30T10:43:32;14.05;;;6.55;;
83125;SDS011;73016;47.234;-1.540;2023-09-30T10:46:49;15.38;;;6.47;;
83125;SDS011;73016;47.234;-1.540;2023-09-30T10:48:51;17.27;;;7.30;;
83125;SDS011;73016;47.234;-1.540;2023-09-30T10:51:17;16.27;;;6.88;;
83125;SDS011;73016;47.234;-1.540;2023-09-30T10:53:46;15.20;;;7.57;;
83125;SDS011;73016;47.234;-1.540;2023-09-30T10:56:12;19.23;;;8.82;;
83125;SDS011;73016;47.234;-1.540;2023-09-30T10:58:42;14.00;;;6.63;;
83125;SDS011;73016;47.234;-1.540;2023-09-30T11:01:18;12.98;;;6.60;;
83125;SDS011;73016;47.234;-1.540;2023-09-30T11:03:45;13.80;;;6.82;;
83125;SDS011;73016;47.234;-1.540;2023-09-30T11:06:15;15.10;;;6.95;;
83125;SDS011;73016;47.234;-1.540;2023-09-30T11:08:55;13.02;;;6.82;;
83125;SDS011;73016;47.234;-1.540;2023-09-30T11:11:43;13.00;;;6.88;;
83125;SDS011;73016;47.234;-1.540;2023-09-30T11:14:20;13.57;;;6.32;;
83125;SDS011;73016;47.234;-1.540;2023-09-30T11:16:59;14.82;;;7.03;;
83125;SDS011;73016;47.234;-1.540;2023-09-30T11:19:27;14.95;;;7.65;;
83125;SDS011;73016;47.234;-1.540;2023-09-30T11:21:59;17.95;;;7.72;;
83125;SDS011;73016;47.234;-1.540;2023-09-30T11:24:25;15.27;;;7.55;;
83125;SDS011;73016;47.234;-1.540;2023-09-30T11:26:53;13.23;;;6.45;;
83125;SDS011;73016;47.234;-1.540;2023-09-30T11:29:20;13.73;;;6.82;;
83125;SDS011;73016;47.234;-1.540;2023-09-30T11:31:47;14.40;;;7.00;;
83125;SDS011;73016;47.234;-1.540;2023-09-30T11:34:13;11.82;;;6.78;;
83125;SDS011;73016;47.234;-1.540;2023-09-30T11:37:00;15.93;;;6.53;;
83125;SDS011;73016;47.234;-1.540;2023-09-30T11:39:26;12.95;;;6.75;;
83125;SDS011;73016;47.234;-1.540;2023-09-30T11:41:53;13.10;;;6.28;;
83125;SDS011;73016;47.234;-1.540;2023-09-30T11:44:22;14.65;;;7.00;;
83125;SDS011;73016;47.234;-1.540;2023-09-30T11:46:48;17.52;;;8.48;;
83125;SDS011;73016;47.234;-1.540;2023-09-30T11:49:24;20.95;;;11.95;;
83125;SDS011;73016;47.234;-1.540;2023-09-30T11:51:52;48.95;;;28.35;;
83125;SDS011;73016;47.234;-1.540;2023-09-30T11:54:18;16.70;;;8.70;;
83125;SDS011;73016;47.234;-1.540;2023-09-30T11:56:43;12.88;;;6.20;;
83125;SDS011;73016;47.234;-1.540;2023-09-30T11:59:10;11.52;;;6.15;;
83125;SDS011;73016;47.234;-1.540;2023-09-30T12:01:36;12.15;;;6.05;;
83125;SDS011;73016;47.234;-1.540;2023-09-30T12:04:02;16.55;;;6.75;;
83125;SDS011;73016;47.234;-1.540;2023-09-30T12:06:28;12.88;;;7.85;;
83125;SDS011;73016;47.234;-1.540;2023-09-30T12:08:54;14.18;;;8.10;;
83125;SDS011;73016;47.234;-1.540;2023-09-30T12:11:19;13.25;;;6.63;;
83125;SDS011;73016;47.234;-1.540;2023-09-30T12:13:44;13.02;;;6.15;;
83125;SDS011;73016;47.234;-1.540;2023-09-30T12:16:13;14.25;;;6.70;;
83125;SDS011;73016;47.234;-1.540;2023-09-30T12:18:39;11.73;;;5.63;;
83125;SDS011;73016;47.234;-1.540;2023-09-30T12:21:06;10.77;;;5.53;;
83125;SDS011;73016;47.234;-1.540;2023-09-30T12:23:33;11.23;;;5.28;;
83125;SDS011;73016;47.234;-1.540;2023-09-30T12:25:58;11.27;;;5.65;;
83125;SDS011;73016;47.234;-1.540;2023-09-30T12:28:24;12.25;;;5.78;;
83125;SDS011;73016;47.234;-1.540;2023-09-30T12:30:49;12.18;;;5.32;;
83125;SDS011;73016;47.234;-1.540;2023-09-30T12:33:14;10.02;;;5.30;;
83125;SDS011;73016;47.234;-1.540;2023-09-30T12:35:40;10.45;;;5.28;;
83125;SDS011;73016;47.234;-1.540;2023-09-30T12:38:05;13.00;;;5.78;;
83125;SDS011;73016;47.234;-1.540;2023-09-30T12:40:30;10.70;;;5.75;;
83125;SDS011;73016;47.234;-1.540;2023-09-30T12:42:56;12.77;;;5.32;;
83125;SDS011;73016;47.234;-1.540;2023-09-30T12:45:22;11.85;;;6.10;;
83125;SDS011;73016;47.234;-1.540;2023-09-30T12:47:48;11.43;;;5.65;;
83125;SDS011;73016;47.234;-1.540;2023-09-30T12:50:13;10.80;;;5.05;;
83125;SDS011;73016;47.234;-1.540;2023-09-30T12:52:39;11.35;;;5.10;;
83125;SDS011;73016;47.234;-1.540;2023-09-30T12:55:05;10.55;;;5.32;;
83125;SDS011;73016;47.234;-1.540;2023-09-30T12:57:31;9.85;;;4.82;;
83125;SDS011;73016;47.234;-1.540;2023-09-30T12:59:56;11.98;;;5.30;;
83125;SDS011;73016;47.234;-1.540;2023-09-30T13:02:22;11.20;;;5.30;;
83125;SDS011;73016;47.234;-1.540;2023-09-30T13:04:48;8.65;;;4.47;;
83125;SDS011;73016;47.234;-1.540;2023-09-30T13:07:14;12.55;;;4.82;;
83125;SDS011;73016;47.234;-1.540;2023-09-30T13:09:39;8.50;;;4.63;;
83125;SDS011;73016;47.234;-1.540;2023-09-30T13:12:05;9.77;;;4.80;;
83125;SDS011;73016;47.234;-1.540;2023-09-30T13:14:31;9.00;;;4.55;;
83125;SDS011;73016;47.234;-1.540;2023-09-30T13:16:57;9.70;;;5.35;;
83125;SDS011;73016;47.234;-1.540;2023-09-30T13:19:22;12.95;;;4.85;;
83125;SDS011;73016;47.234;-1.540;2023-09-30T13:21:48;10.82;;;4.40;;
83125;SDS011;73016;47.234;-1.540;2023-09-30T13:24:15;9.82;;;4.25;;
83125;SDS011;73016;47.234;-1.540;2023-09-30T13:26:40;8.02;;;4.53;;
83125;SDS011;73016;47.234;-1.540;2023-09-30T13:29:06;9.13;;;4.30;;
83125;SDS011;73016;47.234;-1.540;2023-09-30T13:31:34;10.93;;;4.85;;
83125;SDS011;73016;47.234;-1.540;2023-09-30T13:34:02;9.85;;;4.93;;
83125;SDS011;73016;47.234;-1.540;2023-09-30T13:36:28;8.55;;;5.15;;
83125;SDS011;73016;47.234;-1.540;2023-09-30T13:38:53;11.90;;;5.05;;
83125;SDS011;73016;47.234;-1.540;2023-09-30T13:41:19;11.38;;;4.88;;
83125;SDS011;73016;47.234;-1.540;2023-09-30T13:43:44;11.05;;;5.03;;
83125;SDS011;73016;47.234;-1.540;2023-09-30T13:46:10;11.07;;;4.82;;
83125;SDS011;73016;47.234;-1.540;2023-09-30T13:48:37;11.73;;;4.55;;
83125;SDS011;73016;47.234;-1.540;2023-09-30T13:51:05;10.75;;;5.30;;
83125;SDS011;73016;47.234;-1.540;2023-09-30T13:53:31;10.95;;;5.13;;
83125;SDS011;73016;47.234;-1.540;2023-09-30T13:55:57;10.90;;;5.00;;
83125;SDS011;73016;47.234;-1.540;2023-09-30T13:58:23;11.95;;;5.03;;
83125;SDS011;73016;47.234;-1.540;2023-09-30T14:00:49;11.90;;;5.72;;
83125;SDS011;73016;47.234;-1.540;2023-09-30T14:03:17;12.65;;;5.47;;
83125;SDS011;73016;47.234;-1.540;2023-09-30T14:05:43;11.40;;;5.90;;
83125;SDS011;73016;47.234;-1.540;2023-09-30T14:08:10;15.50;;;5.63;;
83125;SDS011;73016;47.234;-1.540;2023-09-30T14:10:36;11.63;;;5.72;;
83125;SDS011;73016;47.234;-1.540;2023-09-30T14:13:01;12.73;;;5.60;;
83125;SDS011;73016;47.234;-1.540;2023-09-30T14:15:27;11.93;;;5.65;;
83125;SDS011;73016;47.234;-1.540;2023-09-30T14:17:53;11.30;;;5.28;;
83125;SDS011;73016;47.234;-1.540;2023-09-30T14:20:20;11.95;;;5.20;;
83125;SDS011;73016;47.234;-1.540;2023-09-30T14:22:46;9.82;;;5.32;;
83125;SDS011;73016;47.234;-1.540;2023-09-30T14:25:12;10.23;;;5.57;;
83125;SDS011;73016;47.234;-1.540;2023-09-30T14:27:38;11.55;;;5.50;;
83125;SDS011;73016;47.234;-1.540;2023-09-30T14:30:05;13.85;;;6.22;;
83125;SDS011;73016;47.234;-1.540;2023-09-30T14:32:31;9.80;;;5.10;;
83125;SDS011;73016;47.234;-1.540;2023-09-30T14:34:57;10.43;;;5.43;;
83125;SDS011;73016;47.234;-1.540;2023-09-30T14:37:23;12.85;;;5.72;;
83125;SDS011;73016;47.234;-1.540;2023-09-30T14:39:49;11.35;;;5.60;;
83125;SDS011;73016;47.234;-1.540;2023-09-30T14:42:14;12.88;;;5.85;;
83125;SDS011;73016;47.234;-1.540;2023-09-30T14:44:39;11.98;;;5.35;;
83125;SDS011;73016;47.234;-1.540;2023-09-30T14:47:05;11.88;;;5.55;;
83125;SDS011;73016;47.234;-1.540;2023-09-30T14:49:30;13.20;;;5.45;;
83125;SDS011;73016;47.234;-1.540;2023-09-30T14:51:56;10.70;;;5.65;;